createdAt,value
2023-02-03T00:00:42.799Z,8.88
2023-02-03T00:02:15.821Z,7.18
2023-02-03T00:03:48.763Z,5.85
2023-02-03T00:05:22.105Z,6.93
2023-02-03T00:08:29.349Z,8.73
2023-02-03T00:10:02.258Z,8.80
2023-02-03T00:11:35.220Z,7.47
2023-02-03T00:13:09.710Z,12.20
2023-02-03T00:14:41.665Z,6.32
2023-02-03T00:16:14.743Z,8.05
2023-02-03T00:17:47.757Z,7.25
2023-02-03T00:19:20.718Z,9.02
2023-02-03T00:20:53.679Z,10.88
2023-02-03T00:22:28.091Z,7.47
2023-02-03T00:24:01.090Z,7.53
2023-02-03T00:25:34.495Z,8.88
2023-02-03T00:28:39.530Z,6.35
2023-02-03T00:30:13.658Z,8.07
2023-02-03T00:31:46.822Z,7.60
2023-02-03T00:33:19.990Z,9.25
2023-02-03T00:34:53.285Z,6.25
2023-02-03T00:36:27.494Z,11.00
2023-02-03T00:38:01.962Z,9.25
2023-02-03T00:39:37.548Z,6.85
2023-02-03T00:41:09.607Z,9.00
2023-02-03T00:42:42.640Z,8.75
2023-02-03T00:44:16.193Z,7.28
2023-02-03T00:45:49.734Z,10.35
2023-02-03T00:47:22.945Z,6.47
2023-02-03T00:48:55.993Z,10.82
2023-02-03T00:50:29.130Z,7.40
2023-02-03T00:52:02.240Z,7.00
2023-02-03T00:53:36.760Z,9.60
2023-02-03T00:55:09.578Z,8.80
2023-02-03T00:56:42.835Z,8.55
2023-02-03T00:58:14.875Z,9.73
2023-02-03T00:59:48.005Z,7.68
2023-02-03T01:01:20.118Z,9.00
2023-02-03T01:02:53.262Z,7.35
2023-02-03T01:04:26.434Z,8.10
2023-02-03T01:06:09.921Z,6.85
2023-02-03T01:07:42.946Z,8.30
2023-02-03T01:09:16.502Z,8.50
2023-02-03T01:10:49.523Z,10.27
2023-02-03T01:12:21.540Z,7.82
2023-02-03T01:13:55.782Z,7.47
2023-02-03T01:15:28.809Z,8.05
2023-02-03T01:17:02.155Z,8.65
2023-02-03T01:20:07.661Z,10.27
2023-02-03T01:21:39.650Z,7.60
2023-02-03T01:23:12.725Z,11.32
2023-02-03T01:24:47.057Z,9.05
2023-02-03T01:26:22.173Z,9.55
2023-02-03T01:27:55.181Z,9.38
2023-02-03T01:29:28.202Z,10.20
2023-02-03T01:31:11.178Z,11.77
2023-02-03T01:32:44.181Z,11.23
2023-02-03T01:34:18.447Z,8.82
2023-02-03T01:35:50.500Z,12.20
2023-02-03T01:37:23.502Z,9.73
2023-02-03T01:38:55.686Z,9.55
2023-02-03T01:40:30.007Z,9.73
2023-02-03T01:42:03.062Z,10.20
2023-02-03T01:43:38.158Z,11.57
2023-02-03T01:45:13.544Z,16.63
2023-02-03T01:46:49.984Z,12.93
2023-02-03T01:48:23.074Z,11.38
2023-02-03T01:50:05.305Z,11.20
2023-02-03T01:51:40.737Z,13.50
2023-02-03T01:53:13.924Z,12.75
2023-02-03T01:54:48.454Z,11.35
2023-02-03T01:56:24.175Z,11.90
2023-02-03T01:58:00.511Z,14.88
2023-02-03T01:59:35.638Z,10.93
2023-02-03T02:01:08.616Z,12.05
2023-02-03T02:02:42.025Z,12.82
2023-02-03T02:04:15.200Z,12.43
2023-02-03T02:05:51.769Z,15.43
2023-02-03T02:07:24.597Z,11.65
2023-02-03T02:09:00.728Z,11.52
2023-02-03T02:10:35.125Z,11.77
2023-02-03T02:12:10.719Z,13.63
2023-02-03T02:13:46.413Z,12.95
2023-02-03T02:15:21.968Z,10.73
2023-02-03T02:17:02.248Z,11.10
2023-02-03T02:18:46.025Z,12.73
2023-02-03T02:20:49.986Z,11.90
2023-02-03T02:22:30.408Z,14.90
2023-02-03T02:24:30.876Z,13.80
2023-02-03T02:26:35.223Z,12.23
2023-02-03T02:28:40.052Z,11.15
2023-02-03T02:32:22.266Z,10.75
2023-02-03T02:34:02.562Z,13.73
2023-02-03T02:35:48.608Z,12.60
2023-02-03T02:37:29.728Z,11.88
2023-02-03T02:39:10.624Z,13.40
2023-02-03T02:40:50.483Z,10.25
2023-02-03T02:42:33.528Z,12.20
2023-02-03T02:44:11.194Z,11.98
2023-02-03T02:45:49.674Z,12.20
2023-02-03T02:47:25.249Z,14.05
2023-02-03T02:49:02.791Z,12.63
2023-02-03T02:50:42.454Z,10.80
2023-02-03T02:52:18.198Z,10.75
2023-02-03T02:53:56.884Z,10.02
2023-02-03T02:55:32.513Z,12.10
2023-02-03T02:57:07.383Z,11.30
2023-02-03T02:58:44.511Z,10.50
2023-02-03T03:00:17.678Z,10.48
2023-02-03T03:01:51.349Z,13.35
2023-02-03T03:03:26.043Z,11.93
2023-02-03T03:04:58.054Z,12.20
2023-02-03T03:06:33.979Z,11.65
2023-02-03T03:08:08.194Z,11.65
2023-02-03T03:09:44.046Z,13.15
2023-02-03T03:11:18.742Z,11.07
2023-02-03T03:12:55.408Z,9.95
2023-02-03T03:14:32.030Z,9.27
2023-02-03T03:16:08.628Z,9.07
2023-02-03T03:17:44.501Z,9.40
2023-02-03T03:19:22.757Z,9.82
2023-02-03T03:21:05.721Z,9.35
2023-02-03T03:22:43.432Z,10.15
2023-02-03T03:24:21.625Z,11.60
2023-02-03T03:26:00.755Z,8.95
2023-02-03T03:27:38.661Z,8.25
2023-02-03T03:29:16.958Z,9.35
2023-02-03T03:30:50.104Z,9.27
2023-02-03T03:32:23.415Z,9.32
2023-02-03T03:35:35.962Z,9.63
2023-02-03T03:37:16.867Z,10.82
2023-02-03T03:38:56.678Z,10.65
2023-02-03T03:40:35.855Z,11.82
2023-02-03T03:42:15.374Z,9.65
2023-02-03T03:43:49.560Z,11.07
2023-02-03T03:45:25.263Z,9.05
2023-02-03T03:47:07.041Z,8.25
2023-02-03T03:48:47.893Z,8.98
2023-02-03T03:50:24.796Z,10.20
2023-02-03T03:52:01.446Z,7.95
2023-02-03T03:53:37.453Z,8.60
2023-02-03T03:55:15.696Z,7.65
2023-02-03T03:56:54.531Z,7.28
2023-02-03T03:58:30.980Z,10.18
2023-02-03T04:00:06.663Z,11.57
2023-02-03T04:01:40.824Z,8.27
2023-02-03T04:03:17.754Z,9.88
2023-02-03T04:04:51.760Z,8.82
2023-02-03T04:06:25.311Z,9.02
2023-02-03T04:08:00.852Z,12.10
2023-02-03T04:09:36.480Z,9.00
2023-02-03T04:11:10.043Z,8.35
2023-02-03T04:12:42.078Z,7.00
2023-02-03T04:14:15.079Z,10.95
2023-02-03T04:15:48.089Z,10.38
2023-02-03T04:17:21.088Z,11.88
2023-02-03T04:18:54.144Z,10.35
2023-02-03T04:20:27.472Z,7.95
2023-02-03T04:21:59.717Z,8.25
2023-02-03T04:23:34.007Z,8.18
2023-02-03T04:25:08.094Z,9.57
2023-02-03T04:26:41.092Z,9.45
2023-02-03T04:28:14.246Z,9.38
2023-02-03T04:29:47.742Z,8.52
2023-02-03T04:32:54.447Z,8.45
2023-02-03T04:34:27.503Z,8.77
2023-02-03T04:36:00.475Z,7.38
2023-02-03T04:37:34.007Z,7.68
2023-02-03T04:39:08.440Z,11.20
2023-02-03T04:40:40.547Z,9.13
2023-02-03T04:42:13.501Z,7.72
2023-02-03T04:43:46.653Z,7.80
2023-02-03T04:45:19.840Z,9.50
2023-02-03T04:46:51.868Z,7.63
2023-02-03T04:48:24.989Z,9.75
2023-02-03T04:49:56.981Z,7.65
2023-02-03T04:51:29.957Z,8.57
2023-02-03T04:53:01.890Z,9.90
2023-02-03T04:54:36.370Z,7.30
2023-02-03T04:56:08.321Z,8.13
2023-02-03T04:57:41.325Z,8.00
2023-02-03T04:59:13.340Z,6.60
2023-02-03T05:00:46.294Z,7.13
2023-02-03T05:02:19.268Z,8.73
2023-02-03T05:03:51.332Z,8.10
2023-02-03T05:05:25.809Z,8.38
2023-02-03T05:06:58.892Z,7.93
2023-02-03T05:08:32.083Z,7.68
2023-02-03T05:10:06.982Z,8.15
2023-02-03T05:11:40.053Z,7.60
2023-02-03T05:13:12.125Z,6.53
2023-02-03T05:14:45.015Z,7.07
2023-02-03T05:16:18.080Z,8.32
2023-02-03T05:17:53.218Z,9.15
2023-02-03T05:19:26.261Z,6.72
2023-02-03T05:20:59.266Z,6.45
2023-02-03T05:22:32.310Z,8.57
2023-02-03T05:24:07.992Z,6.38
2023-02-03T05:25:44.155Z,6.82
2023-02-03T05:27:17.131Z,6.65
2023-02-03T05:28:57.787Z,6.00
2023-02-03T05:30:34.260Z,7.88
2023-02-03T05:32:07.427Z,9.73
2023-02-03T05:33:40.414Z,7.80
2023-02-03T05:35:13.476Z,8.13
2023-02-03T05:36:46.391Z,8.27
2023-02-03T05:38:18.360Z,6.13
2023-02-03T05:39:51.347Z,5.43
2023-02-03T05:41:43.363Z,7.55
2023-02-03T05:43:15.393Z,7.72
2023-02-03T05:44:48.302Z,7.53
2023-02-03T05:46:21.310Z,8.88
2023-02-03T05:47:54.349Z,6.88
2023-02-03T05:49:27.630Z,7.78
2023-02-03T05:51:05.258Z,6.18
2023-02-03T05:52:38.617Z,6.07
2023-02-03T05:55:44.392Z,4.57
2023-02-03T05:57:19.358Z,8.65
2023-02-03T05:58:53.359Z,5.30
2023-02-03T06:00:26.007Z,5.78
2023-02-03T06:01:59.120Z,6.68
2023-02-03T06:03:32.326Z,4.68
2023-02-03T06:05:05.599Z,4.85
2023-02-03T06:06:38.684Z,5.38
2023-02-03T06:08:11.826Z,8.38
2023-02-03T06:09:44.780Z,4.85
2023-02-03T06:11:17.963Z,5.53
2023-02-03T06:12:52.498Z,8.90
2023-02-03T06:14:25.460Z,5.95
2023-02-03T06:15:58.373Z,5.80
2023-02-03T06:17:31.535Z,7.47
2023-02-03T06:19:05.014Z,7.03
2023-02-03T06:20:38.088Z,4.88
2023-02-03T06:22:11.172Z,4.95
2023-02-03T06:23:44.197Z,5.75
2023-02-03T06:25:17.155Z,5.72
2023-02-03T06:26:50.143Z,4.93
2023-02-03T06:28:24.437Z,7.47
2023-02-03T06:29:58.090Z,6.32
2023-02-03T06:31:31.173Z,4.57
2023-02-03T06:33:04.200Z,6.32
2023-02-03T06:34:37.271Z,5.60
2023-02-03T06:36:10.831Z,7.28
2023-02-03T06:37:43.932Z,5.00
2023-02-03T06:39:17.041Z,5.95
2023-02-03T06:40:50.314Z,3.88
2023-02-03T06:42:23.533Z,4.45
2023-02-03T06:43:58.042Z,8.57
2023-02-03T06:45:31.031Z,8.00
2023-02-03T06:47:04.395Z,5.15
2023-02-03T06:48:37.387Z,4.68
2023-02-03T06:50:12.293Z,4.93
2023-02-03T06:51:45.675Z,6.32
2023-02-03T06:54:51.442Z,5.88
2023-02-03T06:56:24.370Z,5.45
2023-02-03T06:57:57.375Z,4.75
2023-02-03T06:59:31.733Z,4.28
2023-02-03T07:01:04.909Z,4.60
2023-02-03T07:02:37.967Z,5.95
2023-02-03T07:04:11.017Z,4.95
2023-02-03T07:05:43.887Z,3.97
2023-02-03T07:07:16.965Z,3.70
2023-02-03T07:08:49.866Z,4.45
2023-02-03T07:10:22.789Z,4.90
2023-02-03T07:11:55.745Z,2.95
2023-02-03T07:13:28.686Z,4.78
2023-02-03T07:15:03.066Z,3.03
2023-02-03T07:16:37.489Z,4.80
2023-02-03T07:18:11.750Z,3.97
2023-02-03T07:19:46.109Z,7.20
2023-02-03T07:21:19.365Z,4.65
2023-02-03T07:22:56.201Z,4.97
2023-02-03T07:24:29.250Z,4.90
2023-02-03T07:26:02.955Z,4.68
2023-02-03T07:27:35.850Z,3.80
2023-02-03T07:29:08.911Z,4.50
2023-02-03T07:30:43.235Z,5.28
2023-02-03T07:32:16.115Z,6.47
2023-02-03T07:33:49.159Z,5.18
2023-02-03T07:35:22.276Z,4.95
2023-02-03T07:36:55.264Z,3.40
2023-02-03T07:38:29.217Z,3.88
2023-02-03T07:40:02.171Z,4.85
2023-02-03T07:41:35.105Z,4.70
2023-02-03T07:43:08.175Z,5.80
2023-02-03T07:44:41.152Z,5.20
2023-02-03T07:46:15.528Z,4.63
2023-02-03T07:47:48.446Z,5.82
2023-02-03T07:49:21.374Z,4.95
2023-02-03T07:50:54.420Z,5.53
2023-02-03T07:52:27.355Z,5.90
2023-02-03T07:54:00.271Z,5.15
2023-02-03T07:55:34.401Z,4.20
2023-02-03T07:57:07.340Z,4.97
2023-02-03T07:58:40.649Z,4.28
2023-02-03T08:00:15.357Z,3.28
2023-02-03T08:01:49.741Z,5.30
2023-02-03T08:03:22.695Z,8.68
2023-02-03T08:04:58.011Z,5.72
2023-02-03T08:06:31.569Z,6.40
2023-02-03T08:08:04.697Z,5.18
2023-02-03T08:09:37.584Z,5.85
2023-02-03T08:11:10.498Z,4.40
2023-02-03T08:12:45.379Z,4.00
2023-02-03T08:14:18.403Z,4.75
2023-02-03T08:15:51.381Z,4.07
2023-02-03T08:17:25.792Z,4.53
2023-02-03T08:18:58.681Z,4.85
2023-02-03T08:20:31.964Z,5.63
2023-02-03T08:23:37.649Z,4.60
2023-02-03T08:25:11.558Z,4.68
2023-02-03T08:26:44.515Z,4.53
2023-02-03T08:28:17.536Z,4.65
2023-02-03T08:29:51.149Z,3.97
2023-02-03T08:31:24.185Z,4.50
2023-02-03T08:32:58.775Z,4.65
2023-02-03T08:34:34.095Z,5.68
2023-02-03T08:36:07.788Z,6.00
2023-02-03T08:37:40.871Z,5.07
2023-02-03T08:39:13.819Z,4.53
2023-02-03T08:40:46.818Z,4.15
2023-02-03T08:42:19.823Z,5.03
2023-02-03T08:43:54.075Z,4.72
2023-02-03T08:45:27.216Z,6.95
2023-02-03T08:47:01.344Z,4.07
2023-02-03T08:48:35.676Z,6.32
2023-02-03T08:50:10.100Z,5.65
2023-02-03T08:51:46.014Z,5.00
2023-02-03T08:53:19.109Z,5.53
2023-02-03T08:54:52.237Z,4.80
2023-02-03T08:56:26.411Z,4.13
2023-02-03T08:57:59.493Z,4.55
2023-02-03T08:59:35.978Z,4.90
2023-02-03T09:01:10.279Z,4.15
2023-02-03T09:02:43.353Z,5.68
2023-02-03T09:04:24.390Z,5.25
2023-02-03T09:05:57.500Z,7.18
2023-02-03T09:07:31.332Z,6.18
2023-02-03T09:09:04.593Z,3.97
2023-02-03T09:10:37.898Z,4.35
2023-02-03T09:12:12.319Z,5.97
2023-02-03T09:13:46.404Z,5.07
2023-02-03T09:15:19.480Z,4.20
2023-02-03T09:16:52.468Z,6.35
2023-02-03T09:18:26.128Z,3.38
2023-02-03T09:20:00.446Z,4.60
2023-02-03T09:21:38.653Z,4.32
2023-02-03T09:23:19.130Z,6.18
2023-02-03T09:24:52.019Z,3.83
2023-02-03T09:26:24.954Z,5.78
2023-02-03T09:27:57.976Z,4.55
2023-02-03T09:29:30.925Z,8.15
2023-02-03T09:31:05.488Z,5.40
2023-02-03T09:32:38.512Z,5.97
2023-02-03T09:34:11.448Z,6.22
2023-02-03T09:35:53.098Z,4.57
2023-02-03T09:37:26.063Z,4.70
2023-02-03T09:38:59.351Z,4.82
2023-02-03T09:40:35.960Z,5.00
2023-02-03T09:42:38.112Z,3.55
2023-02-03T09:44:18.659Z,4.55
2023-02-03T09:45:51.837Z,5.45
2023-02-03T09:47:29.815Z,6.45
2023-02-03T09:49:09.254Z,5.20
2023-02-03T09:50:44.243Z,4.40
2023-02-03T09:52:20.723Z,5.18
2023-02-03T09:53:59.476Z,6.45
2023-02-03T09:55:37.974Z,5.82
2023-02-03T09:57:19.093Z,6.00
2023-02-03T09:58:52.041Z,8.30
2023-02-03T10:00:28.708Z,5.95
2023-02-03T10:02:03.337Z,3.92
2023-02-03T10:03:40.965Z,6.35
2023-02-03T10:05:21.511Z,5.22
2023-02-03T10:06:58.541Z,5.47
2023-02-03T10:09:08.099Z,5.30
2023-02-03T10:10:43.216Z,6.50
2023-02-03T10:12:37.415Z,10.13
2023-02-03T10:14:24.823Z,6.65
2023-02-03T10:16:15.009Z,5.95
2023-02-03T10:17:54.106Z,3.60
2023-02-03T10:19:32.633Z,4.15
2023-02-03T10:21:14.244Z,3.88
2023-02-03T10:22:52.128Z,4.65
2023-02-03T10:24:33.174Z,4.28
2023-02-03T10:26:09.361Z,8.50
2023-02-03T10:27:43.289Z,5.30
2023-02-03T10:29:21.320Z,5.60
2023-02-03T10:30:57.623Z,4.57
2023-02-03T10:32:30.657Z,4.53
2023-02-03T10:34:10.851Z,4.70
2023-02-03T10:35:50.358Z,4.30
2023-02-03T10:37:30.301Z,3.75
2023-02-03T10:39:18.442Z,6.68
2023-02-03T10:40:53.222Z,4.57
2023-02-03T10:42:46.400Z,4.68
2023-02-03T10:44:18.375Z,6.78
2023-02-03T10:45:51.410Z,4.53
2023-02-03T10:47:34.275Z,3.58
2023-02-03T10:49:07.243Z,4.83
2023-02-03T10:50:45.569Z,4.68
2023-02-03T10:52:30.588Z,4.22
2023-02-03T10:54:03.588Z,6.30
2023-02-03T10:55:36.647Z,5.30
2023-02-03T10:57:15.959Z,3.95
2023-02-03T10:58:51.056Z,5.13
2023-02-03T11:00:28.832Z,4.50
2023-02-03T11:02:07.847Z,3.95
2023-02-03T11:03:44.034Z,5.63
2023-02-03T11:05:25.000Z,4.93
2023-02-03T11:07:01.763Z,4.65
2023-02-03T11:08:35.934Z,4.72
2023-02-03T11:10:37.865Z,5.82
2023-02-03T11:12:16.022Z,4.47
2023-02-03T11:13:54.419Z,4.15
2023-02-03T11:15:27.777Z,3.58
2023-02-03T11:17:08.456Z,4.53
2023-02-03T11:18:48.927Z,4.13
2023-02-03T11:20:26.603Z,4.35
2023-02-03T11:22:01.131Z,5.95
2023-02-03T11:23:34.360Z,5.75
2023-02-03T11:25:18.822Z,5.10
2023-02-03T11:26:56.784Z,7.47
2023-02-03T11:28:31.269Z,4.68
2023-02-03T11:30:16.183Z,5.10
2023-02-03T11:31:51.072Z,4.57
2023-02-03T11:33:28.729Z,5.43
2023-02-03T11:35:04.529Z,5.63
2023-02-03T11:36:37.568Z,5.07
2023-02-03T11:38:30.465Z,3.90
2023-02-03T11:40:26.727Z,5.15
2023-02-03T11:42:01.973Z,4.85
2023-02-03T11:43:36.458Z,4.20
2023-02-03T11:45:21.567Z,6.50
2023-02-03T11:46:58.538Z,7.47
2023-02-03T11:48:36.955Z,5.90
2023-02-03T11:50:23.071Z,6.13
2023-02-03T11:52:07.173Z,5.47
2023-02-03T11:54:00.142Z,3.70
2023-02-03T11:55:49.130Z,4.38
2023-02-03T11:57:34.694Z,8.40
2023-02-03T11:59:41.537Z,5.97
2023-02-03T12:01:25.525Z,6.47
2023-02-03T12:03:24.059Z,4.63
2023-02-03T12:05:24.279Z,3.53
2023-02-03T12:07:18.153Z,5.10
2023-02-03T12:09:11.978Z,5.63
2023-02-03T12:10:55.946Z,5.03
2023-02-03T12:12:53.064Z,4.88
2023-02-03T12:14:39.740Z,5.43
2023-02-03T12:16:33.827Z,3.65
2023-02-03T12:18:30.079Z,7.57
2023-02-03T12:20:13.247Z,5.88
2023-02-03T12:21:47.562Z,7.05
2023-02-03T12:23:36.113Z,4.82
2023-02-03T12:25:31.057Z,6.55
2023-02-03T12:27:17.625Z,3.40
2023-02-03T12:28:57.410Z,5.78
2023-02-03T12:30:36.429Z,7.00
2023-02-03T12:32:18.247Z,3.15
2023-02-03T12:33:57.635Z,4.70
2023-02-03T12:35:37.294Z,9.05
2023-02-03T12:37:16.071Z,5.32
2023-02-03T12:38:54.264Z,4.57
2023-02-03T12:40:37.732Z,4.70
2023-02-03T12:42:17.063Z,5.03
2023-02-03T12:43:52.668Z,3.05
2023-02-03T12:45:29.124Z,3.22
2023-02-03T12:47:08.825Z,4.82
2023-02-03T12:48:50.406Z,3.97
2023-02-03T12:50:30.004Z,5.78
2023-02-03T12:52:12.176Z,3.65
2023-02-03T12:53:52.979Z,2.40
2023-02-03T12:55:34.271Z,3.15
2023-02-03T12:57:19.466Z,4.28
2023-02-03T12:58:57.959Z,3.38
2023-02-03T13:00:39.881Z,5.55
2023-02-03T13:02:19.800Z,3.50
2023-02-03T13:04:01.686Z,2.78
2023-02-03T13:05:43.150Z,4.57
2023-02-03T13:07:22.723Z,2.65
2023-02-03T13:09:01.296Z,3.33
2023-02-03T13:10:42.288Z,3.45
2023-02-03T13:12:26.008Z,3.65
2023-02-03T13:14:07.895Z,7.10
2023-02-03T13:15:45.496Z,4.25
2023-02-03T13:17:25.539Z,4.07
2023-02-03T13:19:04.541Z,6.60
2023-02-03T13:20:37.861Z,3.65
2023-02-03T13:23:48.131Z,2.55
2023-02-03T13:25:26.746Z,2.33
2023-02-03T13:27:23.039Z,4.05
2023-02-03T13:29:12.364Z,2.75
2023-02-03T13:31:01.235Z,2.53
2023-02-03T13:32:57.369Z,3.88
2023-02-03T13:34:55.559Z,3.33
2023-02-03T13:36:51.625Z,4.13
2023-02-03T13:38:52.282Z,3.88
2023-02-03T13:40:36.154Z,3.55
2023-02-03T13:44:04.020Z,3.35
2023-02-03T13:45:42.177Z,2.13
2023-02-03T13:47:19.398Z,2.92
2023-02-03T13:48:54.972Z,3.00
2023-02-03T13:50:30.951Z,3.80
2023-02-03T13:52:04.833Z,2.60
2023-02-03T13:53:41.132Z,2.55
2023-02-03T13:55:30.167Z,4.63
2023-02-03T13:57:06.783Z,4.90
2023-02-03T13:58:40.995Z,2.60
2023-02-03T14:00:56.473Z,4.13
2023-02-03T14:02:54.547Z,3.03
2023-02-03T14:04:56.534Z,3.72
2023-02-03T14:07:01.035Z,4.15
2023-02-03T14:09:00.050Z,3.45
2023-02-03T14:10:33.011Z,4.57
2023-02-03T14:12:34.184Z,3.80
2023-02-03T14:14:40.326Z,4.50
2023-02-03T14:16:24.388Z,2.40
2023-02-03T14:18:20.166Z,2.65
2023-02-03T14:19:57.199Z,2.45
2023-02-03T14:21:38.712Z,3.67
2023-02-03T14:23:16.581Z,1.80
2023-02-03T14:24:50.349Z,2.83
2023-02-03T14:26:34.657Z,4.53
2023-02-03T14:28:11.885Z,3.25
2023-02-03T14:29:45.054Z,2.33
2023-02-03T14:31:21.610Z,2.17
2023-02-03T14:32:57.975Z,2.13
2023-02-03T14:34:35.194Z,3.42
2023-02-03T14:36:38.020Z,4.32
2023-02-03T14:38:14.378Z,2.53
2023-02-03T14:40:08.807Z,3.38
2023-02-03T14:41:55.100Z,2.50
2023-02-03T14:43:38.177Z,1.80
2023-02-03T14:45:41.302Z,3.53
2023-02-03T14:47:25.835Z,3.22
2023-02-03T14:49:18.837Z,3.40
2023-02-03T14:51:04.214Z,4.15
2023-02-03T14:52:58.344Z,4.63
2023-02-03T14:54:46.840Z,2.05
2023-02-03T14:56:54.366Z,4.20
2023-02-03T14:58:34.185Z,2.63
2023-02-03T15:00:27.296Z,3.38
2023-02-03T15:02:14.740Z,2.90
2023-02-03T15:04:21.587Z,4.22
2023-02-03T15:05:57.800Z,2.28
2023-02-03T15:07:39.075Z,5.30
2023-02-03T15:09:24.481Z,3.13
2023-02-03T15:10:57.435Z,0.98
2023-02-03T15:12:38.899Z,3.03
2023-02-03T15:14:23.807Z,2.15
2023-02-03T15:15:59.710Z,2.88
2023-02-03T15:17:32.706Z,2.63
2023-02-03T15:19:17.831Z,5.05
2023-02-03T15:20:55.965Z,4.88
2023-02-03T15:22:30.910Z,5.65
2023-02-03T15:24:04.069Z,19.23
2023-02-03T15:25:39.372Z,2.28
2023-02-03T15:27:22.735Z,3.53
2023-02-03T15:28:57.062Z,3.78
2023-02-03T15:30:30.570Z,4.20
2023-02-03T15:32:11.939Z,3.33
2023-02-03T15:33:46.021Z,4.28
2023-02-03T15:35:21.102Z,6.35
2023-02-03T15:36:57.934Z,2.78
2023-02-03T15:38:37.127Z,4.22
2023-02-03T15:40:15.296Z,4.45
2023-02-03T15:41:54.522Z,3.55
2023-02-03T15:43:32.901Z,5.38
2023-02-03T15:45:14.940Z,3.35
2023-02-03T15:46:52.766Z,2.85
2023-02-03T15:48:34.192Z,4.60
2023-02-03T15:50:17.618Z,2.50
2023-02-03T15:51:52.762Z,1.55
2023-02-03T15:53:41.119Z,5.47
2023-02-03T15:55:25.535Z,3.80
2023-02-03T15:57:01.567Z,3.30
2023-02-03T15:58:47.114Z,2.72
2023-02-03T16:00:38.155Z,3.53
2023-02-03T16:02:18.589Z,2.72
2023-02-03T16:03:53.668Z,4.80
2023-02-03T16:05:29.166Z,3.78
2023-02-03T16:07:02.450Z,3.30
2023-02-03T16:08:46.033Z,4.00
2023-02-03T16:10:32.443Z,2.85
2023-02-03T16:12:23.448Z,4.45
2023-02-03T16:13:59.577Z,2.28
2023-02-03T16:15:33.296Z,3.83
2023-02-03T16:17:06.936Z,2.65
2023-02-03T16:18:40.037Z,1.92
2023-02-03T16:20:26.673Z,2.55
2023-02-03T16:22:00.818Z,3.72
2023-02-03T16:23:33.980Z,2.97
2023-02-03T16:25:19.553Z,3.13
2023-02-03T16:26:52.566Z,4.13
2023-02-03T16:28:45.155Z,6.18
2023-02-03T16:30:43.305Z,4.65
2023-02-03T16:32:37.726Z,3.70
2023-02-03T16:36:30.556Z,5.32
2023-02-03T16:38:25.597Z,4.18
2023-02-03T16:40:15.958Z,6.60
2023-02-03T16:42:06.868Z,5.28
2023-02-03T16:43:58.823Z,4.82
2023-02-03T16:45:49.351Z,4.95
2023-02-03T16:47:45.866Z,3.22
2023-02-03T16:49:36.250Z,4.68
2023-02-03T16:51:13.381Z,4.57
2023-02-03T16:52:46.332Z,6.80
2023-02-03T16:54:19.316Z,4.93
2023-02-03T16:55:54.708Z,5.30
2023-02-03T16:57:27.621Z,5.43
2023-02-03T16:59:02.034Z,4.05
2023-02-03T17:00:35.325Z,4.18
2023-02-03T17:03:41.225Z,3.35
2023-02-03T17:05:14.193Z,2.58
2023-02-03T17:06:51.082Z,3.08
2023-02-03T17:08:26.871Z,1.90
2023-02-03T17:09:59.867Z,3.00
2023-02-03T17:11:32.995Z,4.15
2023-02-03T17:13:06.907Z,2.80
2023-02-03T17:14:41.218Z,3.13
2023-02-03T17:16:17.600Z,4.43
2023-02-03T17:17:50.705Z,3.95
2023-02-03T17:19:23.731Z,4.13
2023-02-03T17:20:58.921Z,3.85
2023-02-03T17:22:32.218Z,3.35
2023-02-03T17:24:05.587Z,3.38
2023-02-03T17:27:11.646Z,5.18
2023-02-03T17:28:44.911Z,4.15
2023-02-03T17:30:19.501Z,5.65
2023-02-03T17:31:52.531Z,4.00
2023-02-03T17:33:25.846Z,4.50
2023-02-03T17:34:58.765Z,5.07
2023-02-03T17:36:31.663Z,4.55
2023-02-03T17:38:04.566Z,7.93
2023-02-03T17:54:25.988Z,4.70
2023-02-03T17:55:58.937Z,5.78
2023-02-03T17:57:34.322Z,9.05
2023-02-03T17:59:07.589Z,6.43
2023-02-03T18:00:40.484Z,5.28
2023-02-03T18:02:14.894Z,6.85
2023-02-03T18:03:49.492Z,6.65
2023-02-03T18:05:22.357Z,5.20
2023-02-03T18:06:55.333Z,5.57
2023-02-03T18:08:28.246Z,4.82
2023-02-03T18:10:01.207Z,5.55
2023-02-03T18:11:35.767Z,4.32
2023-02-03T18:13:08.680Z,6.32
2023-02-03T18:14:41.584Z,5.15
2023-02-03T18:16:17.029Z,5.78
2023-02-03T18:17:51.318Z,4.97
2023-02-03T18:19:24.227Z,6.65
2023-02-03T18:20:57.112Z,6.10
2023-02-03T18:22:30.057Z,4.10
2023-02-03T18:24:05.749Z,5.43
2023-02-03T18:25:38.674Z,3.92
2023-02-03T18:27:16.773Z,4.10
2023-02-03T18:28:52.582Z,4.47
2023-02-03T18:30:25.539Z,7.50
2023-02-03T18:31:58.571Z,6.63
2023-02-03T18:33:36.345Z,5.93
2023-02-03T18:35:13.864Z,4.10
2023-02-03T18:36:47.240Z,5.38
2023-02-03T18:39:52.954Z,6.53
2023-02-03T18:41:27.315Z,6.93
2023-02-03T18:43:00.160Z,7.63
2023-02-03T18:44:33.021Z,6.07
2023-02-03T18:46:07.494Z,4.97
2023-02-03T18:47:40.478Z,7.15
2023-02-03T18:49:15.077Z,7.88
2023-02-03T18:50:48.077Z,4.90
2023-02-03T18:52:21.038Z,6.05
2023-02-03T18:53:57.972Z,7.85
2023-02-03T18:55:30.835Z,5.93
2023-02-03T18:57:04.725Z,8.38
2023-02-03T18:58:38.591Z,12.70
2023-02-03T19:00:13.950Z,8.15
2023-02-03T19:01:48.398Z,7.95
2023-02-03T19:03:24.732Z,6.63
2023-02-03T19:04:59.019Z,6.85
2023-02-03T19:06:34.463Z,5.90
2023-02-03T19:08:07.650Z,8.15
2023-02-03T19:09:41.361Z,7.20
2023-02-03T19:11:14.857Z,7.30
2023-02-03T19:12:47.827Z,7.65
2023-02-03T19:14:20.692Z,7.28
2023-02-03T19:15:53.689Z,9.15
2023-02-03T19:17:26.755Z,8.93
2023-02-03T19:18:59.614Z,6.05
2023-02-03T19:20:33.978Z,6.47
2023-02-03T19:22:07.081Z,7.20
2023-02-03T19:23:40.339Z,6.68
2023-02-03T19:25:13.814Z,9.82
2023-02-03T19:28:29.993Z,6.80
2023-02-03T19:30:04.075Z,6.25
2023-02-03T19:33:09.919Z,5.93
2023-02-03T19:34:42.994Z,5.53
2023-02-03T19:36:17.518Z,5.43
2023-02-03T19:37:50.596Z,7.32
2023-02-03T19:39:23.555Z,8.10
2023-02-03T19:40:56.738Z,4.93
2023-02-03T19:42:29.687Z,6.93
2023-02-03T19:44:03.084Z,7.00
2023-02-03T19:47:09.273Z,4.47
2023-02-03T19:48:42.223Z,6.57
2023-02-03T19:50:15.215Z,5.97
2023-02-03T19:51:49.469Z,4.50
2023-02-03T19:53:24.241Z,6.15
2023-02-03T19:54:57.125Z,5.07
2023-02-03T19:56:30.482Z,5.45
2023-02-03T19:59:36.082Z,3.70
2023-02-03T20:01:10.102Z,5.53
2023-02-03T20:02:42.988Z,5.75
2023-02-03T20:04:15.896Z,6.68
2023-02-03T20:05:48.825Z,5.93
2023-02-03T20:07:24.884Z,4.40
2023-02-03T20:08:59.093Z,7.22
2023-02-03T20:10:33.143Z,5.20
2023-02-03T20:12:06.673Z,8.90
2023-02-03T20:13:40.551Z,6.75
2023-02-03T20:15:13.440Z,6.18
2023-02-03T20:16:50.482Z,6.88
2023-02-03T20:18:23.439Z,7.10
2023-02-03T20:19:56.347Z,5.88
2023-02-03T20:21:29.300Z,5.60
2023-02-03T20:23:03.684Z,8.82
2023-02-03T20:24:36.720Z,6.82
2023-02-03T20:26:09.656Z,7.10
2023-02-03T20:27:42.581Z,6.05
2023-02-03T20:29:15.528Z,6.25
2023-02-03T20:30:51.233Z,6.63
2023-02-03T20:32:24.334Z,5.82
2023-02-03T20:33:57.182Z,6.38
2023-02-03T20:35:30.251Z,5.38
2023-02-03T20:37:03.378Z,6.20
2023-02-03T20:38:37.599Z,4.22
2023-02-03T20:40:16.106Z,6.15
2023-02-03T20:41:49.926Z,4.95
2023-02-03T20:43:24.550Z,7.80
2023-02-03T20:44:57.493Z,7.50
2023-02-03T20:46:30.434Z,7.75
2023-02-03T20:48:03.364Z,6.30
2023-02-03T20:49:36.283Z,5.70
2023-02-03T20:51:11.770Z,6.70
2023-02-03T20:52:44.691Z,7.85
2023-02-03T20:54:21.300Z,8.73
2023-02-03T20:55:59.100Z,9.13
2023-02-03T20:57:31.976Z,4.68
2023-02-03T20:59:04.913Z,9.25
2023-02-03T21:00:37.873Z,7.63
2023-02-03T21:02:21.909Z,9.15
2023-02-03T21:04:12.210Z,6.90
2023-02-03T21:05:45.350Z,8.13
2023-02-03T21:07:19.159Z,8.07
2023-02-03T21:08:52.148Z,6.03
2023-02-03T21:10:27.023Z,7.40
2023-02-03T21:12:00.013Z,11.90
2023-02-03T21:13:37.213Z,5.88
2023-02-03T21:15:19.728Z,8.55
2023-02-03T21:16:53.947Z,9.82
2023-02-03T21:18:33.679Z,7.53
2023-02-03T21:20:22.623Z,8.35
2023-02-03T21:21:55.717Z,8.45
2023-02-03T21:23:36.824Z,8.65
2023-02-03T21:25:28.961Z,9.90
2023-02-03T21:27:02.150Z,8.27
2023-02-03T21:28:35.029Z,8.95
2023-02-03T21:30:30.818Z,11.13
2023-02-03T21:32:04.690Z,7.18
2023-02-03T21:33:42.809Z,12.45
2023-02-03T21:35:25.766Z,7.80
2023-02-03T21:36:59.853Z,9.93
2023-02-03T21:38:33.728Z,8.07
2023-02-03T21:40:22.440Z,11.13
2023-02-03T21:41:56.963Z,9.52
2023-02-03T21:43:30.389Z,9.13
2023-02-03T21:46:36.029Z,13.50
2023-02-03T21:48:30.085Z,10.43
2023-02-03T21:50:04.223Z,9.55
2023-02-03T21:51:39.984Z,6.70
2023-02-03T21:53:24.364Z,7.53
2023-02-03T21:54:57.218Z,10.73
2023-02-03T21:56:38.786Z,13.48
2023-02-03T21:58:22.364Z,9.75
2023-02-03T21:59:55.254Z,11.45
2023-02-03T22:01:33.430Z,7.28
2023-02-03T22:03:08.301Z,12.98
2023-02-03T22:04:41.454Z,6.35
2023-02-03T22:06:23.923Z,8.07
2023-02-03T22:07:57.063Z,7.85
2023-02-03T22:09:30.079Z,12.52
2023-02-03T22:11:01.971Z,10.02
2023-02-03T22:12:35.059Z,9.50
2023-02-03T22:14:09.823Z,9.65
2023-02-03T22:15:42.660Z,7.55
2023-02-03T22:17:18.281Z,8.65